createdAt,value
2023-03-17T00:00:02.804Z,23.27
2023-03-17T00:00:17.579Z,22.75
2023-03-17T00:00:51.073Z,21.73
2023-03-17T00:01:09.757Z,21.55
2023-03-17T00:01:24.153Z,22.40
2023-03-17T00:01:37.147Z,23.35
2023-03-17T00:01:54.345Z,23.40
2023-03-17T00:02:08.669Z,22.73
2023-03-17T00:02:23.337Z,22.10
2023-03-17T00:02:36.762Z,21.77
2023-03-17T00:02:51.523Z,21.58
2023-03-17T00:03:05.838Z,21.75
2023-03-17T00:03:22.737Z,21.17
2023-03-17T00:03:38.776Z,20.27
2023-03-17T00:03:51.641Z,20.90
2023-03-17T00:04:04.467Z,21.05
2023-03-17T00:04:20.007Z,21.70
2023-03-17T00:04:33.034Z,21.52
2023-03-17T00:04:45.583Z,20.90
2023-03-17T00:04:58.128Z,21.02
2023-03-17T00:05:23.224Z,20.92
2023-03-17T00:05:36.696Z,21.35
2023-03-17T00:05:51.575Z,21.13
2023-03-17T00:06:05.886Z,20.48
2023-03-17T00:06:25.081Z,20.20
2023-03-17T00:06:38.053Z,20.30
2023-03-17T00:06:50.875Z,20.13
2023-03-17T00:07:03.500Z,20.50
2023-03-17T00:07:17.810Z,19.75
2023-03-17T00:07:31.956Z,19.52
2023-03-17T00:07:45.341Z,19.70
2023-03-17T00:08:03.160Z,19.27
2023-03-17T00:08:20.739Z,19.08
2023-03-17T00:08:35.799Z,18.98
2023-03-17T00:08:49.418Z,19.17
2023-03-17T00:09:02.066Z,19.20
2023-03-17T00:09:16.013Z,19.58
2023-03-17T00:09:30.004Z,19.80
2023-03-17T00:09:42.640Z,19.40
2023-03-17T00:09:55.935Z,19.10
2023-03-17T00:10:14.077Z,19.55
2023-03-17T00:10:27.797Z,19.92
2023-03-17T00:10:40.376Z,19.00
2023-03-17T00:10:53.227Z,18.52
2023-03-17T00:11:10.707Z,18.45
2023-03-17T00:11:23.404Z,18.63
2023-03-17T00:11:35.973Z,18.20
2023-03-17T00:11:49.043Z,18.23
2023-03-17T00:12:02.826Z,18.50
2023-03-17T00:12:15.836Z,18.23
2023-03-17T00:12:28.372Z,18.73
2023-03-17T00:12:41.311Z,18.50
2023-03-17T00:12:55.565Z,18.02
2023-03-17T00:13:11.438Z,18.25
2023-03-17T00:13:25.113Z,18.58
2023-03-17T00:13:38.606Z,18.63
2023-03-17T00:13:51.290Z,17.92
2023-03-17T00:14:04.661Z,17.35
2023-03-17T00:14:18.165Z,17.38
2023-03-17T00:14:30.977Z,17.25
2023-03-17T00:14:46.266Z,17.30
2023-03-17T00:14:58.803Z,17.35
2023-03-17T00:15:13.930Z,17.60
2023-03-17T00:15:27.505Z,17.83
2023-03-17T00:15:40.239Z,17.58
2023-03-17T00:15:55.910Z,17.17
2023-03-17T00:16:16.124Z,17.10
2023-03-17T00:16:29.444Z,17.25
2023-03-17T00:16:44.826Z,17.48
2023-03-17T00:16:57.740Z,17.80
2023-03-17T00:17:14.092Z,17.45
2023-03-17T00:17:26.774Z,17.08
2023-03-17T00:17:39.531Z,17.50
2023-03-17T00:17:54.598Z,18.10
2023-03-17T00:18:13.157Z,18.50
2023-03-17T00:18:25.791Z,19.10
2023-03-17T00:18:38.818Z,19.15
2023-03-17T00:18:53.430Z,18.50
2023-03-17T00:19:06.474Z,18.50
2023-03-17T00:19:24.503Z,19.10
2023-03-17T00:19:38.107Z,18.77
2023-03-17T00:19:50.837Z,18.35
2023-03-17T00:20:04.068Z,18.02
2023-03-17T00:20:23.966Z,18.02
2023-03-17T00:20:36.630Z,18.17
2023-03-17T00:20:49.521Z,18.23
2023-03-17T00:21:02.420Z,18.77
2023-03-17T00:21:19.641Z,18.52
2023-03-17T00:21:35.683Z,17.63
2023-03-17T00:21:49.527Z,17.27
2023-03-17T00:22:06.073Z,17.90
2023-03-17T00:22:19.030Z,17.95
2023-03-17T00:22:31.620Z,17.60
2023-03-17T00:22:45.426Z,17.27
2023-03-17T00:22:59.599Z,17.55
2023-03-17T00:23:17.034Z,18.23
2023-03-17T00:23:29.986Z,17.65
2023-03-17T00:23:47.016Z,17.17
2023-03-17T00:23:59.656Z,17.45
2023-03-17T00:24:14.899Z,17.50
2023-03-17T00:24:29.779Z,17.52
2023-03-17T00:24:42.692Z,17.23
2023-03-17T00:24:55.329Z,17.05
2023-03-17T00:25:20.171Z,17.05
2023-03-17T00:25:34.813Z,17.55
2023-03-17T00:25:48.008Z,17.63
2023-03-17T00:26:00.611Z,17.67
2023-03-17T00:26:13.228Z,18.13
2023-03-17T00:26:26.833Z,17.88
2023-03-17T00:26:41.011Z,17.67
2023-03-17T00:26:54.572Z,17.13
2023-03-17T00:27:11.189Z,17.10
2023-03-17T00:27:24.267Z,17.48
2023-03-17T00:27:36.814Z,17.45
2023-03-17T00:27:50.212Z,17.50
2023-03-17T00:28:04.761Z,17.83
2023-03-17T00:28:19.328Z,18.00
2023-03-17T00:28:33.604Z,17.30
2023-03-17T00:28:46.523Z,17.02
2023-03-17T00:28:59.118Z,17.42
2023-03-17T00:29:12.027Z,17.02
2023-03-17T00:29:25.419Z,17.33
2023-03-17T00:29:38.324Z,17.88
2023-03-17T00:29:50.902Z,17.27
2023-03-17T00:30:05.492Z,17.70
2023-03-17T00:30:19.018Z,17.63
2023-03-17T00:30:32.028Z,17.10
2023-03-17T00:30:45.265Z,17.33
2023-03-17T00:31:00.966Z,17.95
2023-03-17T00:31:16.718Z,18.58
2023-03-17T00:31:30.310Z,18.45
2023-03-17T00:31:45.255Z,18.05
2023-03-17T00:31:58.015Z,18.35
2023-03-17T00:32:17.528Z,18.05
2023-03-17T00:32:30.423Z,18.65
2023-03-17T00:32:45.323Z,18.80
2023-03-17T00:32:59.649Z,18.40
2023-03-17T00:33:13.326Z,18.83
2023-03-17T00:33:27.962Z,19.52
2023-03-17T00:33:41.718Z,19.60
2023-03-17T00:33:55.575Z,18.80
2023-03-17T00:34:12.336Z,18.70
2023-03-17T00:34:25.032Z,18.38
2023-03-17T00:34:37.880Z,18.10
2023-03-17T00:34:52.500Z,18.67
2023-03-17T00:35:14.900Z,19.00
2023-03-17T00:35:29.329Z,18.83
2023-03-17T00:35:42.780Z,19.28
2023-03-17T00:35:58.624Z,19.70
2023-03-17T00:36:16.814Z,20.13
2023-03-17T00:36:33.047Z,19.90
2023-03-17T00:36:47.361Z,20.00
2023-03-17T00:37:00.757Z,20.08
2023-03-17T00:37:13.652Z,20.95
2023-03-17T00:37:27.215Z,20.80
2023-03-17T00:37:39.819Z,20.02
2023-03-17T00:37:53.985Z,19.85
2023-03-17T00:38:07.482Z,20.30
2023-03-17T00:38:21.947Z,21.75
2023-03-17T00:38:35.043Z,22.08
2023-03-17T00:38:47.671Z,20.85
2023-03-17T00:39:01.497Z,20.55
2023-03-17T00:39:27.125Z,21.08
2023-03-17T00:39:41.159Z,21.20
2023-03-17T00:39:53.716Z,21.48
2023-03-17T00:40:10.364Z,21.67
2023-03-17T00:40:26.172Z,21.63
2023-03-17T00:40:38.757Z,21.67
2023-03-17T00:40:51.942Z,21.20
2023-03-17T00:41:04.849Z,20.15
2023-03-17T00:41:18.332Z,20.25
2023-03-17T00:41:31.052Z,20.30
2023-03-17T00:41:43.796Z,20.55
2023-03-17T00:41:57.462Z,20.15
2023-03-17T00:42:11.124Z,20.55
2023-03-17T00:42:23.758Z,20.83
2023-03-17T00:42:36.353Z,20.98
2023-03-17T00:42:50.069Z,21.27
2023-03-17T00:43:03.268Z,21.60
2023-03-17T00:43:16.865Z,21.83
2023-03-17T00:43:30.705Z,22.13
2023-03-17T00:43:43.454Z,22.63
2023-03-17T00:43:56.105Z,22.58
2023-03-17T00:44:08.673Z,22.23
2023-03-17T00:44:21.272Z,21.38
2023-03-17T00:44:34.636Z,20.77
2023-03-17T00:44:47.559Z,21.25
2023-03-17T00:45:00.151Z,21.63
2023-03-17T00:45:14.457Z,22.02
2023-03-17T00:45:27.293Z,21.55
2023-03-17T00:45:40.807Z,20.83
2023-03-17T00:45:54.996Z,21.02
2023-03-17T00:46:13.108Z,21.38
2023-03-17T00:46:28.519Z,21.33
2023-03-17T00:46:41.654Z,21.33
2023-03-17T00:46:56.495Z,20.63
2023-03-17T00:47:10.007Z,20.85
2023-03-17T00:47:23.121Z,21.35
2023-03-17T00:47:35.754Z,20.83
2023-03-17T00:47:50.050Z,20.83
2023-03-17T00:48:03.372Z,20.50
2023-03-17T00:48:18.680Z,20.65
2023-03-17T00:48:32.282Z,21.25
2023-03-17T00:48:45.621Z,21.10
2023-03-17T00:48:58.449Z,21.15
2023-03-17T00:49:28.893Z,21.35
2023-03-17T00:49:41.469Z,21.40
2023-03-17T00:49:54.377Z,21.60
2023-03-17T00:50:12.162Z,21.38
2023-03-17T00:50:27.970Z,20.45
2023-03-17T00:50:41.173Z,20.25
2023-03-17T00:50:54.520Z,20.80
2023-03-17T00:51:07.339Z,21.13
2023-03-17T00:51:21.149Z,21.08
2023-03-17T00:51:33.878Z,20.70
2023-03-17T00:51:48.268Z,20.60
2023-03-17T00:52:01.577Z,21.20
2023-03-17T00:52:14.139Z,21.63
2023-03-17T00:52:27.501Z,22.15
2023-03-17T00:52:40.749Z,22.25
2023-03-17T00:52:56.572Z,21.90
2023-03-17T00:53:12.518Z,22.00
2023-03-17T00:53:26.390Z,22.17
2023-03-17T00:53:39.828Z,22.17
2023-03-17T00:53:52.789Z,22.30
2023-03-17T00:54:05.569Z,22.60
2023-03-17T00:54:19.591Z,22.55
2023-03-17T00:54:32.153Z,22.27
2023-03-17T00:54:46.882Z,22.85
2023-03-17T00:54:59.527Z,23.33
2023-03-17T00:55:14.451Z,23.48
2023-03-17T00:55:27.225Z,23.40
2023-03-17T00:55:40.361Z,23.33
2023-03-17T00:55:52.975Z,23.55
2023-03-17T00:56:13.391Z,23.35
2023-03-17T00:56:26.332Z,23.10
2023-03-17T00:56:41.777Z,23.20
2023-03-17T00:56:54.572Z,23.50
2023-03-17T00:57:10.038Z,23.88
2023-03-17T00:57:22.741Z,23.73
2023-03-17T00:57:35.903Z,23.13
2023-03-17T00:57:50.666Z,22.70
2023-03-17T00:58:10.326Z,22.92
2023-03-17T00:58:27.019Z,22.42
2023-03-17T00:58:40.154Z,22.55
2023-03-17T00:58:52.820Z,22.45
2023-03-17T00:59:13.352Z,23.00
2023-03-17T00:59:30.797Z,23.20
2023-03-17T00:59:43.440Z,23.42
2023-03-17T00:59:56.281Z,23.58
2023-03-17T01:00:19.859Z,23.50
2023-03-17T01:00:32.802Z,23.50
2023-03-17T01:00:45.760Z,22.92
2023-03-17T01:01:00.899Z,22.80
2023-03-17T01:01:13.613Z,23.20
2023-03-17T01:01:26.842Z,23.13
2023-03-17T01:01:39.514Z,22.85
2023-03-17T01:01:53.128Z,22.67
2023-03-17T01:02:05.978Z,22.27
2023-03-17T01:02:18.679Z,22.35
2023-03-17T01:02:32.306Z,22.38
2023-03-17T01:02:45.842Z,22.38
2023-03-17T01:02:58.472Z,22.52
2023-03-17T01:03:12.814Z,22.73
2023-03-17T01:03:26.900Z,22.15
2023-03-17T01:03:39.743Z,21.95
2023-03-17T01:03:52.841Z,22.25
2023-03-17T01:04:06.674Z,22.30
2023-03-17T01:04:20.042Z,22.30
2023-03-17T01:04:33.967Z,22.05
2023-03-17T01:04:52.866Z,22.25
2023-03-17T01:05:12.382Z,22.50
2023-03-17T01:05:27.178Z,22.73
2023-03-17T01:05:40.923Z,22.85
2023-03-17T01:05:56.964Z,22.73
2023-03-17T01:06:12.849Z,22.73
2023-03-17T01:06:26.045Z,22.42
2023-03-17T01:06:39.002Z,21.90
2023-03-17T01:06:53.005Z,21.27
2023-03-17T01:07:05.889Z,21.60
2023-03-17T01:07:18.540Z,22.33
2023-03-17T01:07:32.107Z,21.98
2023-03-17T01:07:48.835Z,21.65
2023-03-17T01:08:01.683Z,21.80
2023-03-17T01:08:14.423Z,21.77
2023-03-17T01:08:30.233Z,21.10
2023-03-17T01:08:44.751Z,20.92
2023-03-17T01:08:57.532Z,21.92
2023-03-17T01:09:14.840Z,21.90
2023-03-17T01:09:28.161Z,20.85
2023-03-17T01:09:41.671Z,21.06
2023-03-17T01:09:55.717Z,21.23
2023-03-17T01:10:13.188Z,21.45
2023-03-17T01:10:28.189Z,22.15
2023-03-17T01:10:42.712Z,21.90
2023-03-17T01:10:55.330Z,21.83
2023-03-17T01:11:16.130Z,21.77
2023-03-17T01:11:28.770Z,21.73
2023-03-17T01:11:42.698Z,21.25
2023-03-17T01:11:55.893Z,21.00
2023-03-17T01:12:13.636Z,21.45
2023-03-17T01:12:26.381Z,21.80
2023-03-17T01:12:38.999Z,21.92
2023-03-17T01:12:52.674Z,21.30
2023-03-17T01:13:06.359Z,21.35
2023-03-17T01:13:18.954Z,21.63
2023-03-17T01:13:31.526Z,21.27
2023-03-17T01:13:44.794Z,21.13
2023-03-17T01:13:59.076Z,21.45
2023-03-17T01:14:12.887Z,21.25
2023-03-17T01:14:25.843Z,20.88
2023-03-17T01:14:38.855Z,21.55
2023-03-17T01:14:51.701Z,21.73
2023-03-17T01:15:04.679Z,21.25
2023-03-17T01:15:17.809Z,21.63
2023-03-17T01:15:31.688Z,21.67
2023-03-17T01:15:47.378Z,21.55
2023-03-17T01:16:01.111Z,21.40
2023-03-17T01:16:15.523Z,21.10
2023-03-17T01:16:29.026Z,21.05
2023-03-17T01:16:41.977Z,21.65
2023-03-17T01:16:55.249Z,22.17
2023-03-17T01:17:14.208Z,21.90
2023-03-17T01:17:27.801Z,21.88
2023-03-17T01:17:40.746Z,22.25
2023-03-17T01:17:53.334Z,22.40
2023-03-17T01:18:05.969Z,21.75
2023-03-17T01:18:21.571Z,20.98
2023-03-17T01:18:34.378Z,21.75
2023-03-17T01:18:47.058Z,22.20
2023-03-17T01:19:01.170Z,21.73
2023-03-17T01:19:14.606Z,21.52
2023-03-17T01:19:27.502Z,21.10
2023-03-17T01:19:40.061Z,21.20
2023-03-17T01:19:52.794Z,22.05
2023-03-17T01:20:06.864Z,21.75
2023-03-17T01:20:22.891Z,21.65
2023-03-17T01:20:35.488Z,22.05
2023-03-17T01:20:48.593Z,21.70
2023-03-17T01:21:01.330Z,21.55
2023-03-17T01:21:14.070Z,21.95
2023-03-17T01:21:26.772Z,22.30
2023-03-17T01:21:40.706Z,22.75
2023-03-17T01:21:54.286Z,22.08
2023-03-17T01:22:07.010Z,21.67
2023-03-17T01:22:19.568Z,21.83
2023-03-17T01:22:32.420Z,21.88
2023-03-17T01:22:45.277Z,21.52
2023-03-17T01:22:57.869Z,22.17
2023-03-17T01:23:10.680Z,22.20
2023-03-17T01:23:23.610Z,22.42
2023-03-17T01:23:37.987Z,22.60
2023-03-17T01:23:50.565Z,22.40
2023-03-17T01:24:03.241Z,22.23
2023-03-17T01:24:15.822Z,22.70
2023-03-17T01:24:28.605Z,22.90
2023-03-17T01:24:41.368Z,21.98
2023-03-17T01:24:55.309Z,21.58
2023-03-17T01:25:10.187Z,22.10
2023-03-17T01:25:23.395Z,22.40
2023-03-17T01:25:36.473Z,22.83
2023-03-17T01:25:50.155Z,22.63
2023-03-17T01:26:02.937Z,22.70
2023-03-17T01:26:15.579Z,22.98
2023-03-17T01:26:28.605Z,22.55
2023-03-17T01:26:42.306Z,22.27
2023-03-17T01:26:54.869Z,22.60
2023-03-17T01:27:07.964Z,21.73
2023-03-17T01:27:20.588Z,22.02
2023-03-17T01:27:35.412Z,22.23
2023-03-17T01:27:49.175Z,22.63
2023-03-17T01:28:02.212Z,22.42
2023-03-17T01:28:18.064Z,22.60
2023-03-17T01:28:30.640Z,22.92
2023-03-17T01:28:43.319Z,23.05
2023-03-17T01:28:56.064Z,23.13
2023-03-17T01:29:08.767Z,22.90
2023-03-17T01:29:21.658Z,22.90
2023-03-17T01:29:34.810Z,23.42
2023-03-17T01:29:48.381Z,23.45
2023-03-17T01:30:01.201Z,23.42
2023-03-17T01:30:23.989Z,22.60
2023-03-17T01:30:38.629Z,22.18
2023-03-17T01:30:51.245Z,22.65
2023-03-17T01:31:05.012Z,22.77
2023-03-17T01:31:19.624Z,22.52
2023-03-17T01:31:32.444Z,23.17
2023-03-17T01:31:46.229Z,23.58
2023-03-17T01:31:59.183Z,23.25
2023-03-17T01:32:11.864Z,22.73
2023-03-17T01:32:24.414Z,23.00
2023-03-17T01:32:37.207Z,23.40
2023-03-17T01:32:50.344Z,22.90
2023-03-17T01:33:04.570Z,23.05
2023-03-17T01:33:17.194Z,23.10
2023-03-17T01:33:30.009Z,23.63
2023-03-17T01:33:42.642Z,23.33
2023-03-17T01:33:55.227Z,22.98
2023-03-17T01:34:07.838Z,23.08
2023-03-17T01:34:22.037Z,22.85
2023-03-17T01:34:35.128Z,22.38
2023-03-17T01:34:48.168Z,22.38
2023-03-17T01:35:00.770Z,22.13
2023-03-17T01:35:13.382Z,22.63
2023-03-17T01:35:29.325Z,22.77
2023-03-17T01:35:43.825Z,22.92
2023-03-17T01:35:57.606Z,22.55
2023-03-17T01:36:11.196Z,22.20
2023-03-17T01:36:23.873Z,22.27
2023-03-17T01:36:37.577Z,22.85
2023-03-17T01:36:50.477Z,22.92
2023-03-17T01:37:03.205Z,22.73
2023-03-17T01:37:15.782Z,23.05
2023-03-17T01:37:28.712Z,23.08
2023-03-17T01:37:42.626Z,22.77
2023-03-17T01:37:57.172Z,23.30
2023-03-17T01:38:10.648Z,23.42
2023-03-17T01:38:23.420Z,23.45
2023-03-17T01:38:36.422Z,23.80
2023-03-17T01:38:50.816Z,23.45
2023-03-17T01:39:05.433Z,22.95
2023-03-17T01:39:18.334Z,22.70
2023-03-17T01:39:30.927Z,22.88
2023-03-17T01:39:43.504Z,22.65
2023-03-17T01:39:57.449Z,22.55
2023-03-17T01:40:15.372Z,22.63
2023-03-17T01:40:30.712Z,23.00
2023-03-17T01:40:46.940Z,23.10
2023-03-17T01:41:01.409Z,23.77
2023-03-17T01:41:14.329Z,23.98
2023-03-17T01:41:27.159Z,23.35
2023-03-17T01:41:40.319Z,23.60
2023-03-17T01:41:56.846Z,23.75
2023-03-17T01:42:11.572Z,23.02
2023-03-17T01:42:24.434Z,23.20
2023-03-17T01:42:38.086Z,23.25
2023-03-17T01:42:54.750Z,23.25
2023-03-17T01:43:18.486Z,23.17
2023-03-17T01:43:32.561Z,22.33
2023-03-17T01:43:45.128Z,22.23
2023-03-17T01:43:57.700Z,22.45
2023-03-17T01:44:16.978Z,22.50
2023-03-17T01:44:29.668Z,22.48
2023-03-17T01:44:58.136Z,22.63
2023-03-17T01:45:44.965Z,22.70
2023-03-17T01:46:23.155Z,21.42
2023-03-17T01:46:36.671Z,23.55
2023-03-17T01:46:50.307Z,23.13
2023-03-17T01:47:02.918Z,22.52
2023-03-17T01:47:16.635Z,22.77
2023-03-17T01:47:30.667Z,23.13
2023-03-17T01:47:43.281Z,23.30
2023-03-17T01:47:56.174Z,23.55
2023-03-17T01:48:09.184Z,23.35
2023-03-17T01:48:23.524Z,22.85
2023-03-17T01:48:41.733Z,22.75
2023-03-17T01:49:04.471Z,23.25
2023-03-17T01:49:25.658Z,23.23
2023-03-17T01:49:39.862Z,22.58
2023-03-17T01:49:53.121Z,22.05
2023-03-17T01:50:09.053Z,22.27
2023-03-17T01:50:22.150Z,23.15
2023-03-17T01:50:34.897Z,23.48
2023-03-17T01:50:48.578Z,23.02
2023-03-17T01:51:02.030Z,22.92
2023-03-17T01:51:18.937Z,22.65
2023-03-17T01:51:37.779Z,22.65
2023-03-17T01:51:57.546Z,22.92
2023-03-17T01:52:14.319Z,22.95
2023-03-17T01:52:28.836Z,23.15
2023-03-17T01:52:41.797Z,23.33
2023-03-17T01:52:54.405Z,23.27
2023-03-17T01:53:07.558Z,22.95
2023-03-17T01:53:23.161Z,23.17
2023-03-17T01:53:36.525Z,22.85
2023-03-17T01:53:51.186Z,22.55
2023-03-17T01:54:06.836Z,22.63
2023-03-17T01:54:27.096Z,22.75
2023-03-17T01:54:45.962Z,23.48
2023-03-17T01:55:03.765Z,23.35
2023-03-17T01:55:18.046Z,23.35
2023-03-17T01:55:31.572Z,23.10
2023-03-17T01:55:45.592Z,22.80
2023-03-17T01:55:58.248Z,23.52
2023-03-17T01:56:11.903Z,23.42
2023-03-17T01:56:25.872Z,23.42
2023-03-17T01:56:41.747Z,22.95
2023-03-17T01:56:58.797Z,23.23
2023-03-17T01:57:16.634Z,23.65
2023-03-17T01:57:33.942Z,23.65
2023-03-17T01:57:50.829Z,22.73
2023-03-17T01:58:03.719Z,22.55
2023-03-17T01:58:18.358Z,22.77
2023-03-17T01:58:32.471Z,23.17
2023-03-17T01:58:46.981Z,23.08
2023-03-17T01:59:04.040Z,22.77
2023-03-17T01:59:20.334Z,22.90
2023-03-17T01:59:36.869Z,23.42
2023-03-17T01:59:52.264Z,23.35
2023-03-17T02:00:09.242Z,22.92
2023-03-17T02:00:26.576Z,22.63
2023-03-17T02:00:39.766Z,22.42
2023-03-17T02:00:52.620Z,22.65
2023-03-17T02:01:07.774Z,23.02
2023-03-17T02:01:24.183Z,23.10
2023-03-17T02:01:42.174Z,23.27
2023-03-17T02:02:01.443Z,23.45
2023-03-17T02:02:21.172Z,23.25
2023-03-17T02:02:36.698Z,23.00
2023-03-17T02:02:51.689Z,22.98
2023-03-17T02:03:06.079Z,22.92
2023-03-17T02:03:19.079Z,23.27
2023-03-17T02:03:31.919Z,23.52
2023-03-17T02:03:45.289Z,23.23
2023-03-17T02:04:00.203Z,23.63
2023-03-17T02:04:13.496Z,23.25
2023-03-17T02:04:26.876Z,23.58
2023-03-17T02:04:40.402Z,24.15
2023-03-17T02:04:53.266Z,23.48
2023-03-17T02:05:09.642Z,23.33
2023-03-17T02:05:26.021Z,23.40
2023-03-17T02:05:39.798Z,23.83
2023-03-17T02:05:53.347Z,24.40
2023-03-17T02:06:07.328Z,24.25
2023-03-17T02:06:19.978Z,24.40
2023-03-17T02:06:33.340Z,24.48
2023-03-17T02:06:57.377Z,24.42
2023-03-17T02:07:12.531Z,24.80
2023-03-17T02:07:26.880Z,24.98
2023-03-17T02:07:40.292Z,24.35
2023-03-17T02:07:53.550Z,23.70
2023-03-17T02:08:11.322Z,24.05
2023-03-17T02:08:23.935Z,24.63
2023-03-17T02:08:36.523Z,24.75
2023-03-17T02:08:49.114Z,24.40
2023-03-17T02:09:02.983Z,24.63
2023-03-17T02:09:15.819Z,25.15
2023-03-17T02:09:28.842Z,25.02
2023-03-17T02:09:41.434Z,25.15
2023-03-17T02:09:56.224Z,25.10
2023-03-17T02:10:12.965Z,25.30
2023-03-17T02:10:27.495Z,24.95
2023-03-17T02:10:42.287Z,24.88
2023-03-17T02:10:57.322Z,25.85
2023-03-17T02:11:10.699Z,26.33
2023-03-17T02:11:23.968Z,25.65
2023-03-17T02:11:36.719Z,25.30
2023-03-17T02:11:50.688Z,25.25
2023-03-17T02:12:05.328Z,25.88
2023-03-17T02:12:19.192Z,26.50
2023-03-17T02:12:34.725Z,26.63
2023-03-17T02:12:51.937Z,26.40
2023-03-17T02:13:05.803Z,25.55
2023-03-17T02:13:18.826Z,25.45
2023-03-17T02:13:32.983Z,26.35
2023-03-17T02:13:45.629Z,26.95
2023-03-17T02:13:59.493Z,26.73
2023-03-17T02:14:12.435Z,26.33
2023-03-17T02:14:25.616Z,26.67
2023-03-17T02:14:38.258Z,26.42
2023-03-17T02:14:51.784Z,25.77
2023-03-17T02:15:06.086Z,25.33
2023-03-17T02:15:18.852Z,25.52
2023-03-17T02:15:42.985Z,25.92
2023-03-17T02:15:57.024Z,26.25
2023-03-17T02:16:14.827Z,26.45
2023-03-17T02:16:30.802Z,26.38
2023-03-17T02:16:45.808Z,26.60
2023-03-17T02:16:58.556Z,26.50
2023-03-17T02:17:11.212Z,26.45
2023-03-17T02:17:27.416Z,26.13
2023-03-17T02:17:40.211Z,26.48
2023-03-17T02:17:53.068Z,27.10
2023-03-17T02:18:06.942Z,27.15
2023-03-17T02:18:22.826Z,27.55
2023-03-17T02:18:35.379Z,27.63
2023-03-17T02:18:47.980Z,27.63
2023-03-17T02:19:00.672Z,27.95
2023-03-17T02:19:13.655Z,28.08
2023-03-17T02:19:28.607Z,27.38
2023-03-17T02:19:42.503Z,27.27
2023-03-17T02:19:55.577Z,27.80
2023-03-17T02:20:47.154Z,28.05
2023-03-17T02:21:32.649Z,26.92
2023-03-17T02:21:47.708Z,27.85
2023-03-17T02:22:01.370Z,28.20
2023-03-17T02:22:14.325Z,28.20
2023-03-17T02:22:28.103Z,28.67
2023-03-17T02:22:40.687Z,28.50
2023-03-17T02:22:56.055Z,28.35
2023-03-17T02:23:08.651Z,28.65
2023-03-17T02:23:23.438Z,28.30
2023-03-17T02:23:36.687Z,28.13
2023-03-17T02:23:49.857Z,28.48
2023-03-17T02:24:07.887Z,28.63
2023-03-17T02:24:27.541Z,28.55
2023-03-17T02:24:43.702Z,29.65
2023-03-17T02:24:59.537Z,29.70
2023-03-17T02:25:12.520Z,29.50
2023-03-17T02:25:27.077Z,29.23
2023-03-17T02:25:40.776Z,29.13
2023-03-17T02:25:54.254Z,29.52
2023-03-17T02:26:08.451Z,29.67
2023-03-17T02:26:26.053Z,29.27
2023-03-17T02:26:38.828Z,29.45
2023-03-17T02:26:54.105Z,29.38
2023-03-17T02:27:13.043Z,29.50
2023-03-17T02:27:33.360Z,28.88
2023-03-17T02:27:49.444Z,28.92
2023-03-17T02:28:08.435Z,30.05
2023-03-17T02:28:26.017Z,30.20
2023-03-17T02:28:39.620Z,28.98
2023-03-17T02:28:52.499Z,28.77
2023-03-17T02:29:06.611Z,28.75
2023-03-17T02:29:21.192Z,29.10
2023-03-17T02:29:37.801Z,29.17
2023-03-17T02:29:50.895Z,29.58
2023-03-17T02:30:04.690Z,30.15
2023-03-17T02:30:20.714Z,30.00
2023-03-17T02:30:35.035Z,29.35
2023-03-17T02:30:47.658Z,29.90
2023-03-17T02:31:00.318Z,29.95
2023-03-17T02:31:14.576Z,30.05
2023-03-17T02:31:28.226Z,30.25
2023-03-17T02:31:41.790Z,29.73
2023-03-17T02:31:54.777Z,29.98
2023-03-17T02:32:08.011Z,31.10
2023-03-17T02:32:22.020Z,31.38
2023-03-17T02:32:35.524Z,31.02
2023-03-17T02:32:48.254Z,31.25
2023-03-17T02:33:01.200Z,31.63
2023-03-17T02:33:13.815Z,31.98
2023-03-17T02:33:27.684Z,31.67
2023-03-17T02:33:40.408Z,32.20
2023-03-17T02:33:53.161Z,32.20
2023-03-17T02:34:06.135Z,32.55
2023-03-17T02:34:19.986Z,32.05
2023-03-17T02:34:32.944Z,31.63
2023-03-17T02:34:47.048Z,31.75
2023-03-17T02:34:59.637Z,33.30
2023-03-17T02:35:13.013Z,34.25
2023-03-17T02:35:25.620Z,33.83
2023-03-17T02:35:38.252Z,33.50
2023-03-17T02:35:51.228Z,33.10
2023-03-17T02:36:05.518Z,32.72
2023-03-17T02:36:18.318Z,33.15
2023-03-17T02:36:32.331Z,32.72
2023-03-17T02:36:46.275Z,32.00
2023-03-17T02:36:59.315Z,32.70
2023-03-17T02:37:12.023Z,33.28
2023-03-17T02:37:26.022Z,34.22
2023-03-17T02:37:38.672Z,34.97
2023-03-17T02:37:51.252Z,35.05
2023-03-17T02:38:04.192Z,35.50
2023-03-17T02:38:17.447Z,36.22
2023-03-17T02:38:30.081Z,36.55
2023-03-17T02:38:42.687Z,36.33
2023-03-17T02:38:55.924Z,36.65
2023-03-17T02:39:08.910Z,37.05
2023-03-17T02:39:22.509Z,37.22
2023-03-17T02:39:35.201Z,36.17
2023-03-17T02:39:47.866Z,36.05
2023-03-17T02:40:01.722Z,36.47
2023-03-17T02:40:15.274Z,36.60
2023-03-17T02:40:28.942Z,36.92
2023-03-17T02:40:41.608Z,36.75
2023-03-17T02:40:54.237Z,36.80
2023-03-17T02:41:07.408Z,36.90
2023-03-17T02:41:21.213Z,37.15
2023-03-17T02:41:34.415Z,37.30
2023-03-17T02:41:47.072Z,36.33
2023-03-17T02:41:59.665Z,35.88
2023-03-17T02:42:13.250Z,36.35
2023-03-17T02:42:27.025Z,36.40
2023-03-17T02:42:40.097Z,36.22
2023-03-17T02:42:54.104Z,36.97
2023-03-17T02:43:06.724Z,37.33
2023-03-17T02:43:19.668Z,36.85
2023-03-17T02:43:32.369Z,37.06
2023-03-17T02:43:44.941Z,36.60
2023-03-17T02:43:57.520Z,36.05
2023-03-17T02:44:11.982Z,36.63
2023-03-17T02:44:25.016Z,37.20
2023-03-17T02:44:37.598Z,37.08
2023-03-17T02:44:50.646Z,37.22
2023-03-17T02:45:03.906Z,36.85
2023-03-17T02:45:16.614Z,36.28
2023-03-17T02:45:29.225Z,36.20
2023-03-17T02:45:41.882Z,36.55
2023-03-17T02:45:55.504Z,36.83
2023-03-17T02:46:08.187Z,37.00
2023-03-17T02:46:20.886Z,36.85
2023-03-17T02:46:33.573Z,36.40
2023-03-17T02:46:47.006Z,36.22
2023-03-17T02:47:02.083Z,36.42
2023-03-17T02:47:15.012Z,36.38
2023-03-17T02:47:27.766Z,36.42
2023-03-17T02:47:41.515Z,36.63
2023-03-17T02:47:55.256Z,37.22
2023-03-17T02:48:08.346Z,36.92
2023-03-17T02:48:22.846Z,36.55
2023-03-17T02:48:37.476Z,36.25
2023-03-17T02:48:51.719Z,37.17
2023-03-17T02:49:05.501Z,37.42
2023-03-17T02:49:18.610Z,37.00
2023-03-17T02:49:32.941Z,36.80
2023-03-17T02:49:45.868Z,37.47
2023-03-17T02:49:58.763Z,38.22
2023-03-17T02:50:21.320Z,38.05
2023-03-17T02:50:33.922Z,36.50
2023-03-17T02:50:46.979Z,36.55
2023-03-17T02:50:59.605Z,36.28
2023-03-17T02:51:12.371Z,35.72
2023-03-17T02:51:24.953Z,36.47
2023-03-17T02:51:39.913Z,36.80
2023-03-17T02:51:52.564Z,37.10
2023-03-17T02:52:05.777Z,37.58
2023-03-17T02:52:18.365Z,37.08
2023-03-17T02:52:31.874Z,36.55
2023-03-17T02:52:44.769Z,36.90
2023-03-17T02:52:58.541Z,36.60
2023-03-17T02:53:11.156Z,36.33
2023-03-17T02:53:23.717Z,36.25
2023-03-17T02:53:37.276Z,36.75
2023-03-17T02:53:50.012Z,36.13
2023-03-17T02:54:02.757Z,36.30
2023-03-17T02:54:15.455Z,36.30
2023-03-17T02:54:28.057Z,36.03
2023-03-17T02:54:40.704Z,36.00
2023-03-17T02:54:53.263Z,35.75
2023-03-17T02:55:08.324Z,36.35
2023-03-17T02:55:22.010Z,35.95
2023-03-17T02:55:34.621Z,35.88
2023-03-17T02:55:47.231Z,36.45
2023-03-17T02:55:59.999Z,36.83
2023-03-17T02:56:12.745Z,37.63
2023-03-17T02:56:26.495Z,37.72
2023-03-17T02:56:39.354Z,37.83
2023-03-17T02:56:52.026Z,37.63
2023-03-17T02:57:05.622Z,37.22
2023-03-17T02:57:18.306Z,36.40
2023-03-17T02:57:30.928Z,36.60
2023-03-17T02:57:43.821Z,36.33
2023-03-17T02:57:56.712Z,36.00
2023-03-17T02:58:10.343Z,36.72
2023-03-17T02:58:22.958Z,36.88
2023-03-17T02:58:35.726Z,36.80
2023-03-17T02:58:48.403Z,36.60
2023-03-17T02:59:00.998Z,37.15
2023-03-17T02:59:14.625Z,36.95
2023-03-17T02:59:27.716Z,36.47
2023-03-17T02:59:40.430Z,36.05
2023-03-17T02:59:54.051Z,35.97
2023-03-17T03:00:10.364Z,36.47
2023-03-17T03:00:24.013Z,36.22
2023-03-17T03:00:36.736Z,36.35
2023-03-17T03:00:49.841Z,36.67
2023-03-17T03:01:03.745Z,37.17
2023-03-17T03:01:16.681Z,36.53
2023-03-17T03:01:30.919Z,36.17
2023-03-17T03:01:43.637Z,36.40
2023-03-17T03:01:56.353Z,36.45
2023-03-17T03:02:09.328Z,36.08
2023-03-17T03:02:22.000Z,36.58
2023-03-17T03:02:35.647Z,36.78
2023-03-17T03:02:48.328Z,36.63
2023-03-17T03:03:01.380Z,36.22
2023-03-17T03:03:13.940Z,36.72
2023-03-17T03:03:26.717Z,37.65
2023-03-17T03:03:39.348Z,37.53
2023-03-17T03:03:51.944Z,36.88
2023-03-17T03:04:05.782Z,36.97
2023-03-17T03:04:19.231Z,37.42